createdAt,value
2023-04-10T00:01:14.704Z,20.42
2023-04-10T00:03:42.935Z,20.52
2023-04-10T00:06:11.261Z,20.70
2023-04-10T00:08:39.493Z,18.52
2023-04-10T00:11:07.895Z,18.00
2023-04-10T00:13:36.159Z,19.70
2023-04-10T00:16:04.521Z,21.48
2023-04-10T00:18:32.770Z,22.10
2023-04-10T00:21:01.113Z,20.00
2023-04-10T00:23:29.172Z,21.42
2023-04-10T00:25:57.481Z,22.67
2023-04-10T00:28:25.682Z,21.00
2023-04-10T00:30:54.320Z,18.15
2023-04-10T00:33:22.674Z,18.75
2023-04-10T00:35:50.975Z,17.10
2023-04-10T00:38:19.384Z,17.33
2023-04-10T00:40:47.512Z,15.73
2023-04-10T00:43:17.520Z,16.50
2023-04-10T00:45:45.973Z,17.50
2023-04-10T00:48:15.304Z,17.33
2023-04-10T00:50:46.313Z,16.92
2023-04-10T00:53:14.681Z,18.23
2023-04-10T00:55:42.997Z,16.80
2023-04-10T00:58:11.157Z,20.15
2023-04-10T01:00:39.489Z,18.83
2023-04-10T01:03:09.601Z,19.17
2023-04-10T01:05:48.232Z,17.60
2023-04-10T01:08:33.513Z,19.35
2023-04-10T01:11:10.778Z,18.23
2023-04-10T01:13:55.854Z,20.02
2023-04-10T01:16:43.827Z,19.83
2023-04-10T01:19:42.409Z,17.23
2023-04-10T01:22:14.723Z,17.70
2023-04-10T01:24:44.297Z,16.67
2023-04-10T01:27:57.140Z,16.70
2023-04-10T01:32:59.701Z,16.17
2023-04-10T01:35:31.106Z,16.30
2023-04-10T01:38:02.234Z,16.50
2023-04-10T01:40:32.261Z,16.08
2023-04-10T01:43:03.235Z,16.05
2023-04-10T01:45:43.457Z,16.20
2023-04-10T01:48:12.742Z,16.30
2023-04-10T01:50:41.783Z,16.85
2023-04-10T01:53:10.826Z,15.38
2023-04-10T01:55:39.518Z,16.35
2023-04-10T01:58:10.131Z,16.33
2023-04-10T02:00:40.870Z,16.13
2023-04-10T02:03:10.748Z,16.85
2023-04-10T02:06:19.434Z,17.15
2023-04-10T02:09:18.609Z,18.48
2023-04-10T02:12:02.412Z,17.50
2023-04-10T02:14:33.373Z,16.95
2023-04-10T02:17:03.137Z,16.52
2023-04-10T02:19:33.609Z,17.55
2023-04-10T02:22:02.451Z,17.67
2023-04-10T02:24:30.871Z,17.40
2023-04-10T02:26:59.130Z,15.40
2023-04-10T02:29:27.360Z,18.15
2023-04-10T02:31:55.765Z,15.80
2023-04-10T02:34:23.840Z,17.92
2023-04-10T02:36:52.140Z,15.70
2023-04-10T02:39:20.658Z,17.95
2023-04-10T02:41:52.098Z,18.47
2023-04-10T02:44:20.305Z,16.92
2023-04-10T02:46:48.553Z,17.48
2023-04-10T02:49:16.845Z,18.40
2023-04-10T02:51:45.905Z,16.42
2023-04-10T02:54:14.204Z,17.50
2023-04-10T02:56:44.019Z,16.50
2023-04-10T02:59:13.192Z,17.67
2023-04-10T03:01:41.595Z,16.45
2023-04-10T03:04:10.036Z,14.30
2023-04-10T03:06:40.894Z,15.88
2023-04-10T03:09:09.144Z,14.63
2023-04-10T03:11:37.598Z,15.13
2023-04-10T03:14:05.929Z,16.13
2023-04-10T03:16:34.476Z,16.55
2023-04-10T03:19:05.020Z,15.38
2023-04-10T03:21:33.374Z,15.02
2023-04-10T03:24:01.579Z,15.63
2023-04-10T03:26:29.808Z,15.45
2023-04-10T03:28:58.521Z,14.82
2023-04-10T03:31:26.729Z,15.90
2023-04-10T03:33:58.746Z,15.57
2023-04-10T03:36:27.069Z,17.50
2023-04-10T03:38:55.444Z,15.93
2023-04-10T03:41:25.236Z,15.00
2023-04-10T03:43:54.314Z,15.23
2023-04-10T03:46:23.138Z,15.32
2023-04-10T03:48:52.264Z,15.60
2023-04-10T03:51:21.542Z,16.17
2023-04-10T03:53:51.979Z,15.02
2023-04-10T03:56:20.514Z,14.85
2023-04-10T03:58:48.602Z,15.63
2023-04-10T04:01:17.082Z,15.50
2023-04-10T04:04:02.636Z,17.33
2023-04-10T04:07:09.012Z,16.15
2023-04-10T04:10:02.409Z,15.35
2023-04-10T04:12:51.286Z,16.00
2023-04-10T04:15:26.952Z,16.65
2023-04-10T04:18:13.669Z,16.38
2023-04-10T04:20:46.761Z,16.48
2023-04-10T04:23:38.365Z,18.25
2023-04-10T04:26:13.562Z,18.30
2023-04-10T04:29:08.148Z,19.10
2023-04-10T04:31:44.011Z,18.65
2023-04-10T04:34:18.431Z,19.92
2023-04-10T04:37:04.936Z,21.38
2023-04-10T04:39:33.214Z,20.85
2023-04-10T04:42:33.660Z,18.55
2023-04-10T04:48:02.183Z,20.27
2023-04-10T04:50:51.340Z,20.88
2023-04-10T04:53:39.613Z,17.10
2023-04-10T04:56:28.996Z,21.92
2023-04-10T04:59:23.502Z,20.90
2023-04-10T05:01:59.101Z,18.92
2023-04-10T05:04:56.618Z,22.48
2023-04-10T05:07:52.897Z,20.38
2023-04-10T05:10:59.458Z,21.58
2023-04-10T05:13:50.398Z,16.00
2023-04-10T05:16:45.814Z,19.02
2023-04-10T05:19:32.277Z,18.60
2023-04-10T05:22:25.264Z,19.50
2023-04-10T05:25:11.854Z,19.10
2023-04-10T05:27:58.684Z,19.23
2023-04-10T05:30:49.711Z,19.52
2023-04-10T05:33:38.144Z,17.52
2023-04-10T05:36:36.534Z,16.67
2023-04-10T05:39:17.668Z,16.85
2023-04-10T05:41:57.621Z,14.95
2023-04-10T05:44:45.830Z,14.93
2023-04-10T05:47:35.684Z,15.50
2023-04-10T05:50:23.131Z,16.10
2023-04-10T05:53:14.402Z,16.55
2023-04-10T05:56:17.890Z,14.85
2023-04-10T05:59:04.795Z,17.13
2023-04-10T06:02:02.698Z,14.88
2023-04-10T06:04:31.755Z,17.40
2023-04-10T06:07:02.251Z,14.50
2023-04-10T06:09:33.505Z,16.45
2023-04-10T06:12:01.935Z,16.92
2023-04-10T06:14:31.603Z,16.90
2023-04-10T06:17:00.363Z,16.58
2023-04-10T06:19:28.582Z,17.85
2023-04-10T06:21:58.103Z,15.85
2023-04-10T06:24:26.299Z,15.40
2023-04-10T06:26:56.271Z,15.25
2023-04-10T06:29:25.496Z,16.83
2023-04-10T06:31:53.885Z,15.05
2023-04-10T06:34:22.712Z,16.77
2023-04-10T06:36:58.891Z,18.13
2023-04-10T06:39:27.149Z,17.55
2023-04-10T06:41:55.319Z,18.67
2023-04-10T06:44:35.237Z,19.88
2023-04-10T06:47:03.796Z,17.13
2023-04-10T06:49:32.241Z,18.80
2023-04-10T06:52:00.644Z,17.52
2023-04-10T06:54:29.132Z,16.40
2023-04-10T06:56:57.370Z,17.98
2023-04-10T06:59:25.542Z,18.75
2023-04-10T07:01:53.850Z,18.73
2023-04-10T07:04:21.940Z,24.23
2023-04-10T07:06:50.214Z,24.80
2023-04-10T07:09:18.423Z,23.42
2023-04-10T07:11:46.923Z,24.60
2023-04-10T07:14:15.031Z,21.63
2023-04-10T07:16:43.276Z,20.42
2023-04-10T07:19:11.721Z,24.83
2023-04-10T07:21:39.863Z,26.30
2023-04-10T07:24:08.337Z,28.10
2023-04-10T07:26:36.429Z,26.45
2023-04-10T07:29:04.710Z,29.15
2023-04-10T07:31:32.983Z,26.05
2023-04-10T07:34:02.912Z,25.08
2023-04-10T07:36:31.480Z,26.65
2023-04-10T07:38:59.767Z,24.55
2023-04-10T07:41:28.097Z,28.15
2023-04-10T07:43:56.367Z,25.98
2023-04-10T07:46:24.896Z,21.38
2023-04-10T07:48:53.326Z,18.77
2023-04-10T07:51:22.798Z,17.33
2023-04-10T07:53:51.380Z,16.15
2023-04-10T07:56:21.245Z,15.98
2023-04-10T07:58:49.875Z,17.85
2023-04-10T08:01:17.960Z,16.50
2023-04-10T08:03:47.106Z,20.60
2023-04-10T08:06:15.537Z,21.67
2023-04-10T08:08:43.852Z,14.70
2023-04-10T08:11:29.423Z,13.90
2023-04-10T08:14:00.406Z,13.60
2023-04-10T08:16:30.229Z,14.40
2023-04-10T08:18:59.880Z,12.35
2023-04-10T08:21:29.633Z,11.85
2023-04-10T08:23:59.956Z,11.88
2023-04-10T08:26:29.681Z,12.68
2023-04-10T08:28:59.722Z,11.48
2023-04-10T08:31:29.363Z,11.23
2023-04-10T08:34:00.773Z,12.73
2023-04-10T08:36:29.025Z,12.45
2023-04-10T08:38:57.245Z,11.90
2023-04-10T08:41:27.614Z,12.57
2023-04-10T08:43:57.481Z,12.40
2023-04-10T08:46:26.160Z,13.65
2023-04-10T08:49:05.834Z,12.07
2023-04-10T08:51:46.713Z,12.30
2023-04-10T08:54:21.827Z,13.27
2023-04-10T08:56:54.168Z,12.18
2023-04-10T08:59:22.856Z,12.00
2023-04-10T09:01:51.040Z,12.40
2023-04-10T09:04:19.450Z,12.57
2023-04-10T09:06:48.031Z,11.70
2023-04-10T09:09:16.410Z,12.70
2023-04-10T09:12:04.869Z,10.90
2023-04-10T09:14:34.611Z,13.13
2023-04-10T09:17:23.378Z,10.60
2023-04-10T09:19:54.496Z,10.65
2023-04-10T09:22:36.265Z,15.68
2023-04-10T09:25:05.252Z,12.02
2023-04-10T09:27:37.727Z,10.93
2023-04-10T09:30:07.605Z,12.07
2023-04-10T09:32:43.143Z,12.35
2023-04-10T09:35:16.020Z,11.88
2023-04-10T09:37:46.366Z,11.70
2023-04-10T09:40:22.655Z,12.75
2023-04-10T09:42:51.590Z,13.77
2023-04-10T09:45:19.935Z,13.85
2023-04-10T09:48:14.445Z,14.15
2023-04-10T09:50:42.693Z,13.65
2023-04-10T09:53:19.984Z,12.60
2023-04-10T09:55:50.057Z,13.00
2023-04-10T09:58:18.689Z,12.82
2023-04-10T10:00:48.427Z,14.48
2023-04-10T10:03:18.945Z,16.23
2023-04-10T10:05:52.476Z,13.90
2023-04-10T10:08:22.008Z,15.88
2023-04-10T10:10:54.805Z,13.90
2023-04-10T10:13:30.528Z,16.33
2023-04-10T10:16:07.695Z,15.65
2023-04-10T10:18:58.947Z,16.55
2023-04-10T10:21:28.937Z,12.88
2023-04-10T10:24:01.130Z,13.93
2023-04-10T10:26:32.597Z,19.17
2023-04-10T10:29:05.803Z,18.48
2023-04-10T10:31:38.076Z,13.32
2023-04-10T10:34:07.124Z,19.45
2023-04-10T10:36:38.722Z,12.65
2023-04-10T10:39:27.348Z,15.38
2023-04-10T10:42:13.756Z,14.45
2023-04-10T10:45:08.718Z,23.95
2023-04-10T10:47:44.477Z,28.30
2023-04-10T10:50:12.898Z,16.13
2023-04-10T10:52:45.841Z,15.18
2023-04-10T10:55:23.386Z,13.45
2023-04-10T10:57:56.029Z,15.18
2023-04-10T11:00:26.329Z,11.63
2023-04-10T11:03:23.751Z,13.57
2023-04-10T11:05:56.408Z,15.98
2023-04-10T11:08:33.747Z,9.88
2023-04-10T11:11:13.023Z,12.13
2023-04-10T11:13:51.386Z,11.73
2023-04-10T11:16:21.085Z,12.00
2023-04-10T11:19:02.756Z,12.40
2023-04-10T11:21:35.615Z,11.85
2023-04-10T11:24:05.617Z,11.45
2023-04-10T11:26:36.699Z,11.85
2023-04-10T11:29:13.756Z,12.70
2023-04-10T11:31:42.159Z,10.30
2023-04-10T11:34:11.424Z,10.55
2023-04-10T11:36:41.990Z,12.35
2023-04-10T11:39:17.639Z,12.98
2023-04-10T11:41:48.288Z,11.27
2023-04-10T11:44:34.409Z,11.57
2023-04-10T11:50:30.001Z,11.45
2023-04-10T11:52:58.170Z,11.45
2023-04-10T11:55:38.294Z,12.25
2023-04-10T11:58:22.840Z,11.20
2023-04-10T12:01:05.149Z,11.93
2023-04-10T12:03:33.455Z,12.10
2023-04-10T12:06:01.622Z,11.48
2023-04-10T12:08:37.818Z,9.90
2023-04-10T12:11:06.610Z,10.13
2023-04-10T12:13:34.780Z,9.10
2023-04-10T12:16:06.916Z,10.13
2023-04-10T12:18:35.816Z,10.48
2023-04-10T12:21:06.141Z,10.40
2023-04-10T12:23:38.475Z,8.68
2023-04-10T12:26:17.878Z,10.95
2023-04-10T12:28:57.303Z,11.23
2023-04-10T12:31:34.532Z,10.30
2023-04-10T12:34:04.326Z,11.15
2023-04-10T12:36:33.078Z,10.60
2023-04-10T12:39:05.849Z,9.20
2023-04-10T12:41:35.598Z,10.73
2023-04-10T12:44:14.621Z,11.65
2023-04-10T12:46:43.662Z,10.98
2023-04-10T12:49:13.964Z,10.23
2023-04-10T12:51:52.795Z,8.85
2023-04-10T12:54:35.247Z,10.13
2023-04-10T12:57:04.393Z,9.13
2023-04-10T12:59:33.016Z,10.80
2023-04-10T13:02:01.298Z,11.70
2023-04-10T13:04:31.067Z,9.10
2023-04-10T13:06:59.415Z,9.13
2023-04-10T13:09:27.575Z,10.27
2023-04-10T13:11:55.802Z,9.95
2023-04-10T13:14:24.083Z,10.23
2023-04-10T13:16:52.328Z,9.77
2023-04-10T13:19:20.694Z,11.38
2023-04-10T13:21:48.794Z,10.25
2023-04-10T13:24:17.085Z,11.50
2023-04-10T13:26:45.298Z,10.85
2023-04-10T13:29:16.385Z,9.85
2023-04-10T13:31:44.761Z,13.32
2023-04-10T13:34:12.909Z,12.15
2023-04-10T13:36:41.386Z,9.90
2023-04-10T13:39:09.675Z,9.45
2023-04-10T13:41:37.988Z,10.88
2023-04-10T13:44:06.151Z,10.20
2023-04-10T13:46:34.469Z,9.43
2023-04-10T13:49:02.794Z,9.60
2023-04-10T13:51:31.180Z,10.75
2023-04-10T13:53:59.461Z,11.68
2023-04-10T13:56:27.714Z,11.45
2023-04-10T13:58:58.874Z,12.13
2023-04-10T14:01:27.184Z,18.02
2023-04-10T14:03:55.542Z,10.77
2023-04-10T14:06:23.824Z,12.95
2023-04-10T14:08:51.938Z,13.98
2023-04-10T14:11:20.782Z,14.93
2023-04-10T14:13:48.976Z,15.85
2023-04-10T14:16:17.259Z,15.43
2023-04-10T14:18:45.488Z,13.98
2023-04-10T14:21:13.731Z,15.52
2023-04-10T14:23:42.722Z,20.77
2023-04-10T14:26:11.025Z,13.82
2023-04-10T14:28:39.282Z,12.68
2023-04-10T14:31:08.298Z,13.15
2023-04-10T14:33:36.559Z,11.88
2023-04-10T14:36:05.191Z,12.77
2023-04-10T14:38:33.657Z,16.95
2023-04-10T14:41:01.741Z,16.35
2023-04-10T14:43:29.909Z,13.13
2023-04-10T14:45:58.292Z,11.05
2023-04-10T14:48:26.460Z,11.77
2023-04-10T14:50:54.936Z,18.38
2023-04-10T14:53:23.188Z,14.10
2023-04-10T14:55:51.482Z,11.38
2023-04-10T14:58:19.654Z,7.78
2023-04-10T15:00:48.007Z,11.82
2023-04-10T15:03:16.377Z,16.77
2023-04-10T15:05:44.544Z,13.48
2023-04-10T15:08:12.762Z,14.45
2023-04-10T15:10:41.057Z,16.05
2023-04-10T15:13:09.162Z,12.02
2023-04-10T15:15:37.690Z,11.35
2023-04-10T15:18:06.180Z,11.77
2023-04-10T15:20:34.334Z,14.00
2023-04-10T15:23:02.721Z,18.70
2023-04-10T15:25:33.034Z,12.00
2023-04-10T15:28:02.014Z,9.70
2023-04-10T15:30:31.666Z,11.13
2023-04-10T15:33:00.305Z,12.88
2023-04-10T15:35:28.447Z,11.20
2023-04-10T15:37:57.488Z,18.02
2023-04-10T15:40:25.901Z,20.10
2023-04-10T15:42:54.129Z,12.88
2023-04-10T15:45:22.398Z,16.73
2023-04-10T15:47:50.683Z,14.02
2023-04-10T15:50:19.223Z,14.73
2023-04-10T15:52:47.717Z,13.98
2023-04-10T15:55:15.866Z,14.43
2023-04-10T15:57:46.778Z,11.98
2023-04-10T16:00:15.544Z,18.20
2023-04-10T16:02:44.188Z,13.35
2023-04-10T16:05:12.478Z,15.77
2023-04-10T16:07:41.066Z,14.80
2023-04-10T16:10:09.772Z,18.08
2023-04-10T16:12:38.106Z,12.52
2023-04-10T16:15:07.386Z,11.55
2023-04-10T16:17:36.010Z,19.05
2023-04-10T16:20:11.077Z,16.25
2023-04-10T16:22:42.074Z,20.17
2023-04-10T16:25:10.843Z,21.73
2023-04-10T16:27:38.951Z,16.92
2023-04-10T16:30:07.928Z,14.85
2023-04-10T16:32:36.303Z,14.40
2023-04-10T16:35:04.873Z,12.77
2023-04-10T16:37:33.068Z,19.40
2023-04-10T16:40:01.404Z,13.10
2023-04-10T16:42:29.849Z,12.02
2023-04-10T16:44:59.586Z,10.80
2023-04-10T16:47:28.031Z,12.70
2023-04-10T16:49:56.801Z,10.50
2023-04-10T16:52:25.106Z,13.38
2023-04-10T16:54:53.848Z,15.75
2023-04-10T16:57:22.468Z,21.52
2023-04-10T16:59:50.811Z,43.03
2023-04-10T17:02:20.278Z,19.38
2023-04-10T17:04:48.584Z,23.67
2023-04-10T17:07:16.838Z,22.92
2023-04-10T17:09:45.118Z,17.58
2023-04-10T17:12:13.344Z,11.27
2023-04-10T17:14:41.606Z,13.23
2023-04-10T17:17:11.570Z,13.80
2023-04-10T17:19:39.874Z,16.05
2023-04-10T17:22:08.214Z,11.75
2023-04-10T17:24:36.443Z,13.88
2023-04-10T17:27:04.828Z,10.50
2023-04-10T17:29:37.419Z,14.43
2023-04-10T17:32:06.439Z,17.73
2023-04-10T17:34:35.552Z,14.07
2023-04-10T17:37:03.807Z,14.95
2023-04-10T17:39:32.074Z,17.90
2023-04-10T17:42:00.284Z,17.23
2023-04-10T17:44:28.492Z,14.50
2023-04-10T17:46:56.872Z,14.45
2023-04-10T17:49:26.320Z,15.00
2023-04-10T17:51:54.781Z,17.20
2023-04-10T17:54:23.078Z,17.50
2023-04-10T17:56:53.453Z,15.90
2023-04-10T17:59:21.738Z,19.35
2023-04-10T18:01:50.110Z,20.85
2023-04-10T18:04:18.523Z,16.05
2023-04-10T18:06:46.737Z,15.98
2023-04-10T18:09:15.106Z,27.10
2023-04-10T18:11:43.190Z,23.35
2023-04-10T18:14:11.602Z,30.80
2023-04-10T18:16:39.856Z,32.22
2023-04-10T18:19:08.194Z,24.02
2023-04-10T18:21:36.653Z,17.67
2023-04-10T18:24:05.048Z,15.70
2023-04-10T18:26:33.355Z,29.05
2023-04-10T18:29:01.908Z,24.55
2023-04-10T18:31:30.168Z,22.15
2023-04-10T18:34:07.196Z,25.80
2023-04-10T18:36:36.842Z,32.13
2023-04-10T18:39:05.395Z,44.70
2023-04-10T18:41:33.784Z,23.15
2023-04-10T18:44:05.597Z,20.48
2023-04-10T18:46:34.479Z,19.02
2023-04-10T18:49:02.968Z,88.32
2023-04-10T18:51:33.432Z,79.22
2023-04-10T18:54:03.888Z,68.80
2023-04-10T18:56:32.680Z,94.53
2023-04-10T18:59:02.991Z,187.00
2023-04-10T19:01:31.761Z,103.43
2023-04-10T19:04:00.289Z,88.57
2023-04-10T19:06:29.019Z,58.42
2023-04-10T19:08:58.250Z,25.80
2023-04-10T19:11:26.429Z,40.88
2023-04-10T19:13:55.172Z,17.35
2023-04-10T19:16:23.730Z,28.10
2023-04-10T19:18:54.202Z,27.75
2023-04-10T19:21:22.781Z,28.08
2023-04-10T19:23:51.123Z,41.17
2023-04-10T19:26:19.500Z,100.18
2023-04-10T19:28:47.845Z,100.72
2023-04-10T19:31:16.144Z,57.83
2023-04-10T19:33:44.678Z,64.63
2023-04-10T19:36:12.877Z,64.20
2023-04-10T19:38:41.239Z,34.38
2023-04-10T19:41:19.044Z,71.70
2023-04-10T19:43:47.273Z,109.88
2023-04-10T19:46:19.547Z,119.60
2023-04-10T19:48:48.427Z,116.90
2023-04-10T19:51:16.974Z,57.40
2023-04-10T19:53:45.452Z,41.88
2023-04-10T19:56:13.546Z,64.47
2023-04-10T19:58:42.886Z,66.63
2023-04-10T20:01:12.056Z,72.53
2023-04-10T20:03:40.996Z,49.90
2023-04-10T20:06:09.368Z,57.45
2023-04-10T20:08:37.746Z,50.80
2023-04-10T20:11:06.604Z,65.65
2023-04-10T20:13:35.572Z,46.20
2023-04-10T20:16:03.826Z,26.15
2023-04-10T20:18:35.004Z,23.00
2023-04-10T20:21:03.329Z,30.00
2023-04-10T20:23:31.585Z,31.67
2023-04-10T20:25:59.752Z,28.98
2023-04-10T20:28:28.093Z,38.33
2023-04-10T20:30:56.415Z,32.78
2023-04-10T20:33:24.838Z,44.97
2023-04-10T20:35:53.848Z,46.63
2023-04-10T20:38:23.771Z,42.28
2023-04-10T20:40:51.990Z,25.40
2023-04-10T20:43:20.274Z,21.08
2023-04-10T20:45:48.684Z,28.98
2023-04-10T20:48:16.945Z,37.13
2023-04-10T20:50:46.931Z,35.92
2023-04-10T20:53:16.905Z,35.03
2023-04-10T20:55:47.867Z,34.15
2023-04-10T20:58:17.788Z,27.00
2023-04-10T21:00:46.104Z,32.85
2023-04-10T21:03:14.476Z,44.00
2023-04-10T21:05:43.393Z,36.05
2023-04-10T21:08:13.438Z,35.47
2023-04-10T21:13:09.072Z,25.77
2023-04-10T21:15:37.410Z,34.13
2023-04-10T21:20:41.796Z,25.40
2023-04-10T21:23:10.162Z,18.77
2023-04-10T21:25:40.477Z,16.65
2023-04-10T21:28:08.985Z,19.92
2023-04-10T21:30:37.289Z,40.55
2023-04-10T21:33:05.550Z,37.55
2023-04-10T21:35:33.856Z,23.08
2023-04-10T21:38:02.433Z,17.27
2023-04-10T21:40:31.033Z,16.48
2023-04-10T21:42:59.401Z,19.67
2023-04-10T21:45:27.606Z,27.48
2023-04-10T21:47:56.071Z,28.38
2023-04-10T21:50:25.885Z,28.95
2023-04-10T21:52:54.305Z,31.30
2023-04-10T21:55:22.467Z,36.10
2023-04-10T21:57:50.796Z,34.15
2023-04-10T22:00:21.194Z,42.58
2023-04-10T22:05:19.385Z,56.45
2023-04-10T22:07:47.618Z,77.72
2023-04-10T22:10:16.165Z,58.72
2023-04-10T22:12:45.933Z,66.15
2023-04-10T22:17:44.503Z,118.35
2023-04-10T22:20:13.044Z,74.20
2023-04-10T22:22:41.363Z,71.72
2023-04-10T22:25:09.897Z,59.53
2023-04-10T22:27:37.966Z,56.45
2023-04-10T22:30:07.415Z,59.80
2023-04-10T22:32:35.631Z,73.50
2023-04-10T22:35:03.993Z,71.95
2023-04-10T22:37:32.325Z,82.68
2023-04-10T22:40:00.493Z,75.97
2023-04-10T22:42:31.214Z,43.25
2023-04-10T22:45:00.254Z,30.42
2023-04-10T22:47:28.351Z,40.47
2023-04-10T22:49:56.599Z,38.70
2023-04-10T22:52:24.828Z,36.10
2023-04-10T22:54:52.997Z,38.95
2023-04-10T22:57:21.097Z,45.35
2023-04-10T22:59:49.436Z,55.10
2023-04-10T23:02:17.640Z,58.72
2023-04-10T23:04:46.132Z,56.63
2023-04-10T23:07:14.432Z,64.43
2023-04-10T23:09:42.789Z,54.88
2023-04-10T23:12:10.936Z,63.83
2023-04-10T23:14:39.268Z,112.75
2023-04-10T23:18:17.687Z,38.75
2023-04-10T23:20:49.746Z,47.13
2023-04-10T23:23:18.010Z,76.00
2023-04-10T23:25:46.140Z,76.22
2023-04-10T23:28:14.460Z,70.75
2023-04-10T23:30:42.778Z,58.42
2023-04-10T23:33:10.954Z,44.30
2023-04-10T23:35:39.319Z,42.17
2023-04-10T23:38:09.179Z,42.65
2023-04-10T23:40:37.586Z,36.83
2023-04-10T23:43:06.172Z,30.08
2023-04-10T23:45:34.319Z,26.63
2023-04-10T23:48:02.764Z,26.02
2023-04-10T23:50:30.899Z,22.38
2023-04-10T23:52:59.194Z,23.55
2023-04-10T23:55:27.613Z,27.80
2023-04-10T23:57:55.885Z,53.55
